Time;durP1;ratioP1;P1;durP2;ratioP2;P2;SDS_P1;SDS_P2;PMS_P1;PMS_P2;Temp;Humidity;BMP_temperature;BMP_pressure;BME280_temperature;BME280_humidity;BME280_pressure;Samples;Min_cycle;Max_cycle;Signal;HPM_P1;HPM_P2
2021/10/20 00:02:13;;;;;;;;;;;;;;;;;;5046302;28;19932;-78
2021/10/20 00:04:39;;;;;;;;;;;;;;;;;;5065959;28;19913;-76
2021/10/20 00:07:05;;;;;;;;;;;;;;;;;;5084779;28;20003;-75
2021/10/20 00:09:31;;;;;;;;;;;;;;;;;;5080808;28;19908;-77
2021/10/20 00:11:57;;;;;;;;;;;;;;;;;;5046113;28;19916;-74
2021/10/20 00:14:23;;;;;;;;;;;;;;;;;;5063623;28;19916;-75
2021/10/20 00:16:49;;;;;;;;;;;;;;;;;;5064129;28;19962;-75
2021/10/20 00:19:15;;;;;;;;;;;;;;;;;;5064156;28;20294;-75
2021/10/20 00:21:41;;;;;;;;;;;;;;;;;;5064084;28;19948;-75
2021/10/20 00:24:07;;;;;;;;;;;;;;;;;;5065023;28;19958;-77
2021/10/20 00:26:33;;;;;;;;;;;;;;;;;;5084143;28;20266;-76
2021/10/20 00:28:59;;;;;;;;;;;;;;;;;;5083883;28;19908;-74
2021/10/20 00:31:24;;;;;;;;;;;;;;;;;;5065448;28;20011;-74
2021/10/20 00:33:50;;;;;;;;;;;;;;;;;;5083828;28;19970;-75
2021/10/20 00:36:16;;;;;;;;;;;;;;;;;;5083665;28;19913;-75
2021/10/20 00:38:42;;;;;;;;;;;;;;;;;;5084017;28;19909;-75
2021/10/20 00:41:09;;;;;;;;;;;;;;;;;;5082677;28;19912;-74
2021/10/20 00:43:34;;;;;;;;;;;;;;;;;;5083624;28;19908;-75
2021/10/20 00:46:00;;;;;;;;;;;;;;;;;;5083756;28;19958;-75
2021/10/20 00:48:26;;;;;;;;;;;;;;;;;;5083769;28;20302;-73
2021/10/20 00:50:52;;;;;;;;;;;;;;;;;;5069563;28;19916;-73
2021/10/20 00:53:18;;;;;;;;;;;;;;;;;;5064214;28;19909;-75
2021/10/20 00:55:44;;;;;;;;;;;;;;;;;;5063771;28;19972;-74
2021/10/20 00:58:10;;;;;;;;;;;;;;;;;;5046865;28;19979;-75
2021/10/20 01:00:36;;;;;;;;;;;;;;;;;;5064380;28;19909;-74
2021/10/20 01:03:02;;;;;;;;;;;;;;;;;;5051567;28;19912;-73
2021/10/20 01:05:28;;;;;;;;;;;;;;;;;;5083385;28;20470;-76
2021/10/20 01:07:54;;;;;;;;;;;;;;;;;;5078140;28;19912;-76
2021/10/20 01:10:20;;;;;;;;;;;;;;;;;;5081805;28;19938;-75
2021/10/20 01:12:46;;;;;;;;;;;;;;;;;;5064466;28;19912;-74
2021/10/20 01:15:12;;;;;;;;;;;;;;;;;;5083089;28;19913;-73
2021/10/20 01:17:38;;;;;;;;;;;;;;;;;;5082335;28;19908;-73
2021/10/20 01:20:03;;;;;;;;;;;;;;;;;;5082583;28;19944;-75
2021/10/20 01:22:29;;;;;;;;;;;;;;;;;;5082202;28;19916;-73
2021/10/20 01:24:55;;;;;;;;;;;;;;;;;;5082145;28;19908;-76
2021/10/20 01:27:21;;;;;;;;;;;;;;;;;;5082280;28;19908;-76
2021/10/20 01:29:47;;;;;;;;;;;;;;;;;;5082356;28;19980;-73
2021/10/20 01:32:13;;;;;;;;;;;;;;;;;;5063760;28;20235;-75
2021/10/20 01:34:39;;;;;;;;;;;;;;;;;;5082793;28;19920;-76
2021/10/20 01:37:05;;;;;;;;;;;;;;;;;;5082520;28;19908;-73
2021/10/20 01:39:31;;;;;;;;;;;;;;;;;;5081867;28;19919;-75
2021/10/20 01:41:57;;;;;;;;;;;;;;;;;;5081944;28;19959;-74
2021/10/20 01:44:23;;;;;;;;;;;;;;;;;;5083283;28;19908;-75
2021/10/20 01:46:49;;;;;;;;;;;;;;;;;;5083515;28;20439;-76
2021/10/20 01:49:15;;;;;;;;;;;;;;;;;;5082232;28;19909;-77
2021/10/20 01:51:40;;;;;;;;;;;;;;;;;;5082539;28;20041;-75
2021/10/20 01:54:06;;;;;;;;;;;;;;;;;;5082852;28;19954;-78
2021/10/20 01:56:32;;;;;;;;;;;;;;;;;;5082700;28;19912;-76
2021/10/20 01:58:58;;;;;;;;;;;;;;;;;;5082852;28;19909;-75
2021/10/20 02:01:24;;;;;;;;;;;;;;;;;;5082891;28;19908;-76
2021/10/20 02:03:52;;;;;;;;;;;;;;;;;;5082499;28;19961;-72
2021/10/20 02:06:18;;;;;;;;;;;;;;;;;;5082532;28;19908;-74
2021/10/20 02:08:44;;;;;;;;;;;;;;;;;;5083825;28;19915;-75
2021/10/20 02:11:10;;;;;;;;;;;;;;;;;;5083887;28;19912;-75
2021/10/20 02:13:36;;;;;;;;;;;;;;;;;;5082870;28;19974;-71
2021/10/20 02:16:03;;;;;;;;;;;;;;;;;;5084180;28;19966;-74
2021/10/20 02:18:29;;;;;;;;;;;;;;;;;;5082802;28;19916;-77
2021/10/20 02:20:55;;;;;;;;;;;;;;;;;;5082737;28;19908;-74
2021/10/20 02:23:21;;;;;;;;;;;;;;;;;;5085063;28;19947;-74
2021/10/20 02:25:47;;;;;;;;;;;;;;;;;;5084669;28;20428;-72
2021/10/20 02:28:13;;;;;;;;;;;;;;;;;;5084655;28;19908;-77
2021/10/20 02:30:39;;;;;;;;;;;;;;;;;;5085722;28;19908;-74
2021/10/20 02:33:04;;;;;;;;;;;;;;;;;;5084223;28;20062;-75
2021/10/20 02:35:30;;;;;;;;;;;;;;;;;;5086826;28;19923;-75
2021/10/20 02:37:56;;;;;;;;;;;;;;;;;;5085894;28;19915;-74
2021/10/20 02:40:22;;;;;;;;;;;;;;;;;;5085755;28;19952;-74
2021/10/20 02:42:48;;;;;;;;;;;;;;;;;;5084821;28;19962;-76
2021/10/20 02:45:14;;;;;;;;;;;;;;;;;;5085946;28;19963;-73
2021/10/20 02:47:40;;;;;;;;;;;;;;;;;;5086103;28;19909;-75
2021/10/20 02:50:06;;;;;;;;;;;;;;;;;;5067956;28;19908;-73
2021/10/20 02:52:32;;;;;;;;;;;;;;;;;;5066056;28;19909;-75
2021/10/20 02:54:58;;;;;;;;;;;;;;;;;;5066380;28;19943;-75
2021/10/20 02:57:24;;;;;;;;;;;;;;;;;;5065533;28;19912;-76
2021/10/20 02:59:51;;;;;;;;;;;;;;;;;;5066079;28;19936;-73
2021/10/20 03:02:17;;;;;;;;;;;;;;;;;;5082187;28;20031;-74
2021/10/20 03:04:43;;;;;;;;;;;;;;;;;;5086190;28;19909;-73
2021/10/20 03:07:09;;;;;;;;;;;;;;;;;;5085764;28;19909;-73
2021/10/20 03:09:35;;;;;;;;;;;;;;;;;;5085746;28;19908;-75
2021/10/20 03:12:01;;;;;;;;;;;;;;;;;;5085913;28;19913;-76
2021/10/20 03:14:26;;;;;;;;;;;;;;;;;;5085522;28;19915;-73
2021/10/20 03:16:52;;;;;;;;;;;;;;;;;;5084059;28;19909;-76
2021/10/20 03:19:18;;;;;;;;;;;;;;;;;;5085861;28;19914;-73
2021/10/20 03:21:44;;;;;;;;;;;;;;;;;;5067132;28;19916;-73
2021/10/20 03:24:10;;;;;;;;;;;;;;;;;;5047050;28;19963;-74
2021/10/20 03:26:36;;;;;;;;;;;;;;;;;;5064503;28;19909;-78
2021/10/20 03:29:02;;;;;;;;;;;;;;;;;;5065682;28;19916;-72
2021/10/20 03:31:28;;;;;;;;;;;;;;;;;;5084276;28;19920;-74
2021/10/20 03:33:54;;;;;;;;;;;;;;;;;;5084542;28;19944;-75
2021/10/20 03:36:20;;;;;;;;;;;;;;;;;;5084642;28;19913;-74
2021/10/20 03:38:46;;;;;;;;;;;;;;;;;;5070153;28;19912;-75
2021/10/20 03:41:12;;;;;;;;;;;;;;;;;;5070549;28;19999;-74
2021/10/20 03:43:38;;;;;;;;;;;;;;;;;;5084453;28;20389;-76
2021/10/20 03:46:03;;;;;;;;;;;;;;;;;;5084779;28;19958;-74
2021/10/20 03:48:29;;;;;;;;;;;;;;;;;;5084858;28;19908;-72
2021/10/20 03:50:55;;;;;;;;;;;;;;;;;;5083627;28;20410;-76
2021/10/20 03:53:21;;;;;;;;;;;;;;;;;;5082919;28;19919;-76
2021/10/20 03:55:50;;;;;;;;;;;;;;;;;;5084524;28;19912;-74
2021/10/20 03:58:17;;;;;;;;;;;;;;;;;;5083179;28;19909;-74
2021/10/20 04:00:43;;;;;;;;;;;;;;;;;;5065543;28;19908;-77
2021/10/20 04:03:09;;;;;;;;;;;;;;;;;;5084207;28;19943;-76
2021/10/20 04:05:35;;;;;;;;;;;;;;;;;;5083434;28;19908;-76
2021/10/20 04:08:01;;;;;;;;;;;;;;;;;;5083682;28;19913;-75
2021/10/20 04:10:27;;;;;;;;;;;;;;;;;;5084011;28;19908;-75
2021/10/20 04:12:53;;;;;;;;;;;;;;;;;;5083506;28;19993;-75
2021/10/20 04:15:19;;;;;;;;;;;;;;;;;;5083759;28;19919;-74
2021/10/20 04:17:45;;;;;;;;;;;;;;;;;;5083819;28;19908;-72
2021/10/20 04:20:11;;;;;;;;;;;;;;;;;;5080263;28;20600;-75
2021/10/20 04:22:38;;;;;;;;;;;;;;;;;;5069638;28;20356;-75
2021/10/20 04:25:04;;;;;;;;;;;;;;;;;;5083583;28;19916;-74
2021/10/20 04:27:30;;;;;;;;;;;;;;;;;;5083956;28;19908;-76
2021/10/20 04:29:58;;;;;;;;;;;;;;;;;;5082796;28;19908;-75
2021/10/20 04:32:24;;;;;;;;;;;;;;;;;;5083634;28;19916;-76
2021/10/20 04:34:50;;;;;;;;;;;;;;;;;;5082181;28;19921;-73
2021/10/20 04:37:23;;;;;;;;;;;;;;;;;;5084323;28;19959;-74
2021/10/20 04:39:49;;;;;;;;;;;;;;;;;;5065102;28;19920;-75
2021/10/20 04:42:15;;;;;;;;;;;;;;;;;;5083038;28;19969;-75
2021/10/20 04:44:41;;;;;;;;;;;;;;;;;;5082956;28;19997;-75
2021/10/20 04:47:07;;;;;;;;;;;;;;;;;;5082237;28;19909;-74
2021/10/20 04:49:32;;;;;;;;;;;;;;;;;;5082659;28;19908;-74
2021/10/20 04:51:58;;;;;;;;;;;;;;;;;;5062904;28;20448;-74
2021/10/20 04:54:24;;;;;;;;;;;;;;;;;;5062820;28;19913;-76
2021/10/20 04:56:50;;;;;;;;;;;;;;;;;;5065232;28;20103;-73
2021/10/20 04:59:16;;;;;;;;;;;;;;;;;;5062825;28;19909;-77
2021/10/20 05:01:42;;;;;;;;;;;;;;;;;;5063176;28;19916;-75
2021/10/20 05:04:08;;;;;;;;;;;;;;;;;;5045100;28;20347;-73
2021/10/20 05:06:34;;;;;;;;;;;;;;;;;;5062539;28;19915;-74
2021/10/20 05:09:00;;;;;;;;;;;;;;;;;;5063434;28;19976;-74
2021/10/20 05:11:26;;;;;;;;;;;;;;;;;;5063192;28;19946;-75
2021/10/20 05:13:52;;;;;;;;;;;;;;;;;;5064150;28;19909;-75
2021/10/20 05:16:18;;;;;;;;;;;;;;;;;;5065428;28;19913;-74
2021/10/20 05:18:43;;;;;;;;;;;;;;;;;;5079427;28;19935;-74
2021/10/20 05:21:09;;;;;;;;;;;;;;;;;;5081944;28;19949;-74
2021/10/20 05:23:35;;;;;;;;;;;;;;;;;;5070455;28;19915;-76
2021/10/20 05:26:01;;;;;;;;;;;;;;;;;;5081113;28;19913;-74
2021/10/20 05:28:27;;;;;;;;;;;;;;;;;;5080468;28;20390;-76
2021/10/20 05:30:53;;;;;;;;;;;;;;;;;;5079298;28;19912;-74
2021/10/20 05:33:19;;;;;;;;;;;;;;;;;;5078170;28;19971;-74
2021/10/20 05:35:45;;;;;;;;;;;;;;;;;;5061933;28;19940;-78
2021/10/20 05:38:11;;;;;;;;;;;;;;;;;;5077301;28;20359;-74
2021/10/20 05:40:37;;;;;;;;;;;;;;;;;;5075904;28;19912;-75
2021/10/20 05:43:03;;;;;;;;;;;;;;;;;;5077725;28;19920;-76
2021/10/20 05:45:29;;;;;;;;;;;;;;;;;;5076406;28;20298;-75
2021/10/20 05:47:56;;;;;;;;;;;;;;;;;;5076313;28;20562;-75
2021/10/20 05:50:22;;;;;;;;;;;;;;;;;;5071969;28;19912;-76
2021/10/20 05:52:48;;;;;;;;;;;;;;;;;;5076924;28;20283;-75
2021/10/20 05:55:14;;;;;;;;;;;;;;;;;;5076657;28;19970;-75
2021/10/20 05:57:40;;;;;;;;;;;;;;;;;;5062043;28;20412;-76
2021/10/20 06:00:06;;;;;;;;;;;;;;;;;;5080148;28;19920;-73
2021/10/20 06:02:32;;;;;;;;;;;;;;;;;;5062521;28;19954;-76
2021/10/20 06:04:58;;;;;;;;;;;;;;;;;;5080287;28;19912;-75
2021/10/20 06:07:23;;;;;;;;;;;;;;;;;;5082432;28;20287;-74
2021/10/20 06:09:49;;;;;;;;;;;;;;;;;;5080127;28;20394;-76
2021/10/20 06:12:15;;;;;;;;;;;;;;;;;;5051777;28;19913;-76
2021/10/20 06:14:41;;;;;;;;;;;;;;;;;;5061621;28;20378;-74
2021/10/20 06:17:07;;;;;;;;;;;;;;;;;;5046251;28;19915;-76
2021/10/20 06:19:33;;;;;;;;;;;;;;;;;;5064555;28;19909;-74
2021/10/20 06:21:59;;;;;;;;;;;;;;;;;;5065608;28;19909;-78
2021/10/20 06:24:25;;;;;;;;;;;;;;;;;;5066845;28;19909;-77
2021/10/20 06:26:51;;;;;;;;;;;;;;;;;;5067768;28;19913;-77
2021/10/20 06:29:18;;;;;;;;;;;;;;;;;;5066782;28;19916;-77
2021/10/20 06:31:44;;;;;;;;;;;;;;;;;;5065899;28;19917;-77
2021/10/20 06:34:10;;;;;;;;;;;;;;;;;;5070548;28;19988;-77
2021/10/20 06:36:37;;;;;;;;;;;;;;;;;;5066374;28;19916;-76
2021/10/20 06:39:03;;;;;;;;;;;;;;;;;;5066194;28;19907;-76
2021/10/20 06:41:29;;;;;;;;;;;;;;;;;;5073157;28;19955;-78
2021/10/20 06:43:54;;;;;;;;;;;;;;;;;;5067221;28;19913;-76
2021/10/20 06:46:20;;;;;;;;;;;;;;;;;;5070467;28;19912;-75
2021/10/20 06:48:47;;;;;;;;;;;;;;;;;;5077746;28;19909;-73
2021/10/20 06:51:13;;;;;;;;;;;;;;;;;;5080622;28;19958;-76
2021/10/20 06:53:39;;;;;;;;;;;;;;;;;;5068716;28;19932;-77
2021/10/20 06:56:05;;;;;;;;;;;;;;;;;;5080625;28;19919;-74
2021/10/20 06:58:31;;;;;;;;;;;;;;;;;;5080876;28;19943;-76
2021/10/20 07:00:57;;;;;;;;;;;;;;;;;;5076703;28;19909;-74
2021/10/20 07:03:23;;;;;;;;;;;;;;;;;;5067080;28;19915;-75
2021/10/20 07:05:49;;;;;;;;;;;;;;;;;;5067798;28;19916;-75
2021/10/20 07:08:15;;;;;;;;;;;;;;;;;;5078907;28;19949;-74
2021/10/20 07:10:47;;;;;;;;;;;;;;;;;;5081476;28;20346;-73
2021/10/20 07:13:15;;;;;;;;;;;;;;;;;;5066745;28;19908;-76
2021/10/20 07:15:41;;;;;;;;;;;;;;;;;;5081108;28;19923;-76
2021/10/20 07:18:09;;;;;;;;;;;;;;;;;;5064780;28;19908;-73
2021/10/20 07:20:35;;;;;;;;;;;;;;;;;;5064371;28;19912;-76
2021/10/20 07:23:01;;;;;;;;;;;;;;;;;;5059187;28;20037;-77
2021/10/20 07:25:30;;;;;;;;;;;;;;;;;;5077278;28;19897;-78
2021/10/20 07:27:56;;;;;;;;;;;;;;;;;;5083727;28;19990;-76
2021/10/20 07:30:22;;;;;;;;;;;;;;;;;;5082029;28;19916;-76
2021/10/20 07:32:48;;;;;;;;;;;;;;;;;;5084597;28;19916;-77
2021/10/20 07:35:14;;;;;;;;;;;;;;;;;;5087747;28;19927;-76
2021/10/20 07:37:40;;;;;;;;;;;;;;;;;;5084851;28;19908;-79
2021/10/20 07:40:06;;;;;;;;;;;;;;;;;;5085320;28;19912;-74
2021/10/20 07:42:39;;;;;;;;;;;;;;;;;;5073201;28;20395;-73
2021/10/20 07:45:14;;;;;;;;;;;;;;;;;;5059454;28;19920;-75
2021/10/20 07:47:40;;;;;;;;;;;;;;;;;;5057380;28;19915;-74
2021/10/20 07:50:06;;;;;;;;;;;;;;;;;;5078290;28;19908;-73
2021/10/20 07:52:33;;;;;;;;;;;;;;;;;;5059160;28;19908;-76
2021/10/20 07:54:59;;;;;;;;;;;;;;;;;;5057540;28;19923;-75
2021/10/20 07:57:25;;;;;;;;;;;;;;;;;;5064092;28;19955;-72
2021/10/20 07:59:52;;;;;;;;;;;;;;;;;;5062963;28;19909;-74
2021/10/20 08:02:19;;;;;;;;;;;;;;;;;;5081066;28;19954;-76
2021/10/20 08:04:45;;;;;;;;;;;;;;;;;;5073913;28;19919;-74
2021/10/20 08:07:11;;;;;;;;;;;;;;;;;;5043657;28;19921;-77
2021/10/20 08:09:40;;;;;;;;;;;;;;;;;;5044439;28;19897;-76
2021/10/20 08:12:06;;;;;;;;;;;;;;;;;;5058467;28;19913;-75
2021/10/20 08:14:33;;;;;;;;;;;;;;;;;;5073973;28;20401;-77
2021/10/20 08:16:59;;;;;;;;;;;;;;;;;;5061393;28;19919;-78
2021/10/20 08:19:25;;;;;;;;;;;;;;;;;;5062819;28;19980;-76
2021/10/20 08:21:51;;;;;;;;;;;;;;;;;;5063852;28;19935;-76
2021/10/20 08:24:17;;;;;;;;;;;;;;;;;;5064132;28;19913;-77
2021/10/20 08:26:43;;;;;;;;;;;;;;;;;;5063517;28;20375;-78
2021/10/20 08:30:19;;;;;;;;;;;;;;;;;;;;;
2021/10/20 08:32:04;;;;;;;;;;;;;;;;;;5072047;28;19918;-76
2021/10/20 08:34:30;;;;;;;;;;;;;;;;;;5076647;28;19983;-77
2021/10/20 08:36:56;;;;;;;;;;;;;;;;;;5057037;28;19935;-76
2021/10/20 08:39:22;;;;;;;;;;;;;;;;;;5038621;28;19909;-77
2021/10/20 08:41:49;;;;;;;;;;;;;;;;;;5055545;28;20334;-75
2021/10/20 08:44:15;;;;;;;;;;;;;;;;;;5056828;28;19924;-74
2021/10/20 08:46:41;;;;;;;;;;;;;;;;;;5067281;28;19921;-75
2021/10/20 08:49:07;;;;;;;;;;;;;;;;;;5054787;28;19920;-74
2021/10/20 08:51:33;;;;;;;;;;;;;;;;;;5062370;28;19913;-74
2021/10/20 08:53:59;;;;;;;;;;;;;;;;;;5048372;28;19951;-75
2021/10/20 08:56:25;;;;;;;;;;;;;;;;;;5072599;28;19924;-74
2021/10/20 08:58:51;;;;;;;;;;;;;;;;;;5064080;28;19916;-75
2021/10/20 09:01:18;;;;;;;;;;;;;;;;;;5079568;28;19912;-76
2021/10/20 09:03:44;;;;;;;;;;;;;;;;;;5062374;28;19926;-75
2021/10/20 09:06:10;;;;;;;;;;;;;;;;;;5055970;28;19952;-74
2021/10/20 09:08:36;;;;;;;;;;;;;;;;;;5055625;28;19913;-78
2021/10/20 09:11:03;;;;;;;;;;;;;;;;;;5053734;28;20370;-76
2021/10/20 09:13:28;;;;;;;;;;;;;;;;;;5072426;28;19919;-79
2021/10/20 09:15:54;;;;;;;;;;;;;;;;;;5064496;28;19920;-75
2021/10/20 09:18:20;;;;;;;;;;;;;;;;;;5062729;28;19919;-75
2021/10/20 09:20:46;;;;;;;;;;;;;;;;;;5051543;28;20015;-76
2021/10/20 09:23:12;;;;;;;;;;;;;;;;;;5039701;28;19913;-73
2021/10/20 09:25:38;;;;;;;;;;;;;;;;;;5035681;28;19923;-74
2021/10/20 09:28:04;;;;;;;;;;;;;;;;;;5063413;28;19913;-74
2021/10/20 09:30:30;;;;;;;;;;;;;;;;;;5058016;28;19916;-74
2021/10/20 09:32:56;;;;;;;;;;;;;;;;;;5079713;28;19959;-72
2021/10/20 09:35:22;;;;;;;;;;;;;;;;;;5082462;28;20397;-75
2021/10/20 09:37:48;;;;;;;;;;;;;;;;;;5081697;28;19908;-75
2021/10/20 09:40:14;;;;;;;;;;;;;;;;;;5067173;28;19908;-72
2021/10/20 09:42:40;;;;;;;;;;;;;;;;;;5086880;28;19908;-72
2021/10/20 09:45:06;;;;;;;;;;;;;;;;;;5086474;28;19915;-72
2021/10/20 09:47:32;;;;;;;;;;;;;;;;;;5086516;28;19909;-72
2021/10/20 09:49:58;;;;;;;;;;;;;;;;;;5086462;28;19944;-71
2021/10/20 09:52:24;;;;;;;;;;;;;;;;;;5088365;28;19943;-71
2021/10/20 09:54:50;;;;;;;;;;;;;;;;;;5086352;28;19916;-71
2021/10/20 09:57:16;;;;;;;;;;;;;;;;;;5086283;28;20003;-70
2021/10/20 09:59:42;;;;;;;;;;;;;;;;;;5086214;28;20362;-72
2021/10/20 10:02:08;;;;;;;;;;;;;;;;;;5087072;28;19916;-71
2021/10/20 10:04:37;;;;;;;;;;;;;;;;;;5086397;28;19908;-71
2021/10/20 10:07:03;;;;;;;;;;;;;;;;;;5086568;28;19919;-71
2021/10/20 10:09:29;;;;;;;;;;;;;;;;;;5086422;28;19908;-71
2021/10/20 10:12:04;;;;;;;;;;;;;;;;;;5068582;28;19909;-71
2021/10/20 10:14:30;;;;;;;;;;;;;;;;;;5068606;28;19908;-70
2021/10/20 10:16:59;;;;;;;;;;;;;;;;;;5068382;28;19912;-71
2021/10/20 10:19:25;;;;;;;;;;;;;;;;;;5086211;28;19909;-70
2021/10/20 10:21:52;;;;;;;;;;;;;;;;;;5085736;28;19946;-71
2021/10/20 10:24:18;;;;;;;;;;;;;;;;;;5086448;28;19913;-72
2021/10/20 10:26:44;;;;;;;;;;;;;;;;;;5085467;28;19917;-70
2021/10/20 10:29:10;;;;;;;;;;;;;;;;;;5080282;28;19909;-70
2021/10/20 10:31:36;;;;;;;;;;;;;;;;;;5066760;28;19980;-72
2021/10/20 10:34:02;;;;;;;;;;;;;;;;;;5068448;28;19967;-73
2021/10/20 10:36:28;;;;;;;;;;;;;;;;;;5065938;28;19916;-74
2021/10/20 10:38:54;;;;;;;;;;;;;;;;;;5065845;28;19948;-72
2021/10/20 10:41:37;;;;;;;;;;;;;;;;;;5066809;28;19916;-71
2021/10/20 10:44:10;;;;;;;;;;;;;;;;;;5054622;28;19932;-71
2021/10/20 10:46:36;;;;;;;;;;;;;;;;;;5068952;28;19931;-71
2021/10/20 10:49:02;;;;;;;;;;;;;;;;;;5079523;28;20050;-71
2021/10/20 10:51:28;;;;;;;;;;;;;;;;;;5088582;28;19908;-72
2021/10/20 10:53:54;;;;;;;;;;;;;;;;;;5065588;28;19917;-71
2021/10/20 10:56:23;;;;;;;;;;;;;;;;;;5066205;28;19967;-71
2021/10/20 10:58:49;;;;;;;;;;;;;;;;;;5066917;28;19908;-71
2021/10/20 11:01:15;;;;;;;;;;;;;;;;;;5067339;28;19931;-69
2021/10/20 11:03:41;;;;;;;;;;;;;;;;;;5067285;28;19912;-72
2021/10/20 11:06:08;;;;;;;;;;;;;;;;;;5067919;28;19913;-71
2021/10/20 11:08:34;;;;;;;;;;;;;;;;;;5068860;28;19909;-72
2021/10/20 11:11:00;;;;;;;;;;;;;;;;;;5085365;28;19984;-75
2021/10/20 11:13:26;;;;;;;;;;;;;;;;;;5068736;28;19915;-72
2021/10/20 11:15:52;;;;;;;;;;;;;;;;;;5088732;28;19916;-71
2021/10/20 11:18:20;;;;;;;;;;;;;;;;;;5087281;28;20366;-71
2021/10/20 11:20:47;;;;;;;;;;;;;;;;;;5088753;28;19915;-71
2021/10/20 11:23:13;;;;;;;;;;;;;;;;;;5088364;28;19908;-71
2021/10/20 11:25:39;;;;;;;;;;;;;;;;;;5088808;28;19909;-71
2021/10/20 11:28:05;;;;;;;;;;;;;;;;;;5088345;28;19973;-71
2021/10/20 11:30:35;;;;;;;;;;;;;;;;;;5087608;28;19909;-71
2021/10/20 11:33:01;;;;;;;;;;;;;;;;;;5068258;28;20380;-69
2021/10/20 11:35:27;;;;;;;;;;;;;;;;;;5089126;28;19917;-71
2021/10/20 11:37:53;;;;;;;;;;;;;;;;;;5088930;28;20506;-71
2021/10/20 11:40:19;;;;;;;;;;;;;;;;;;5088120;28;19967;-70
2021/10/20 11:42:45;;;;;;;;;;;;;;;;;;5088419;28;19908;-71
2021/10/20 11:45:11;;;;;;;;;;;;;;;;;;5088984;28;19912;-71
2021/10/20 11:47:37;;;;;;;;;;;;;;;;;;5087457;28;19915;-71
2021/10/20 11:50:03;;;;;;;;;;;;;;;;;;5085351;28;19913;-72
2021/10/20 11:52:33;;;;;;;;;;;;;;;;;;5081933;28;19912;-72
2021/10/20 11:54:59;;;;;;;;;;;;;;;;;;5086556;28;19912;-76
2021/10/20 11:57:28;;;;;;;;;;;;;;;;;;5062569;28;19920;-70
2021/10/20 11:59:54;;;;;;;;;;;;;;;;;;5068811;28;19995;-71
2021/10/20 12:02:20;;;;;;;;;;;;;;;;;;5087671;28;19915;-70
2021/10/20 12:04:48;;;;;;;;;;;;;;;;;;5087899;28;19915;-72
2021/10/20 12:07:15;;;;;;;;;;;;;;;;;;5088297;28;19912;-71
2021/10/20 12:12:30;;;;;;;;;;;;;;;;;;5079324;28;20358;-73
2021/10/20 12:14:57;;;;;;;;;;;;;;;;;;5069947;28;19918;-72
2021/10/20 12:17:23;;;;;;;;;;;;;;;;;;5087779;28;19999;-70
2021/10/20 12:19:48;;;;;;;;;;;;;;;;;;5087600;28;19915;-71
2021/10/20 12:22:14;;;;;;;;;;;;;;;;;;5087858;28;19909;-71
2021/10/20 12:24:40;;;;;;;;;;;;;;;;;;5087681;28;19908;-70
2021/10/20 12:27:06;;;;;;;;;;;;;;;;;;5087711;28;20010;-72
2021/10/20 12:29:32;;;;;;;;;;;;;;;;;;5084849;28;19909;-70
2021/10/20 12:32:00;;;;;;;;;;;;;;;;;;5066740;28;19967;-70
2021/10/20 12:34:27;;;;;;;;;;;;;;;;;;5067657;28;19935;-71
2021/10/20 12:36:53;;;;;;;;;;;;;;;;;;5087181;28;19923;-71
2021/10/20 12:39:19;;;;;;;;;;;;;;;;;;5086810;28;19909;-70
2021/10/20 12:41:45;;;;;;;;;;;;;;;;;;5087234;28;19908;-71
2021/10/20 12:44:11;;;;;;;;;;;;;;;;;;5068695;28;19943;-71
2021/10/20 12:46:42;;;;;;;;;;;;;;;;;;5068417;28;19958;-71
2021/10/20 12:49:09;;;;;;;;;;;;;;;;;;5086200;28;19931;-71
2021/10/20 12:51:35;;;;;;;;;;;;;;;;;;5069675;28;19915;-71
2021/10/20 12:54:01;;;;;;;;;;;;;;;;;;5067184;28;19913;-70
2021/10/20 12:56:27;;;;;;;;;;;;;;;;;;5067253;28;19971;-70
2021/10/20 12:58:53;;;;;;;;;;;;;;;;;;5067020;28;19909;-71
2021/10/20 13:01:19;;;;;;;;;;;;;;;;;;5066052;28;19915;-75
2021/10/20 13:03:45;;;;;;;;;;;;;;;;;;5061150;28;19916;-80
2021/10/20 13:06:12;;;;;;;;;;;;;;;;;;5069245;28;19966;-80
2021/10/20 13:08:39;;;;;;;;;;;;;;;;;;5053227;28;19916;-78
2021/10/20 13:11:05;;;;;;;;;;;;;;;;;;5051946;28;19956;-78
2021/10/20 13:13:30;;;;;;;;;;;;;;;;;;5061987;28;20667;-77
2021/10/20 13:15:57;;;;;;;;;;;;;;;;;;5054910;28;19982;-76
2021/10/20 13:18:23;;;;;;;;;;;;;;;;;;5063596;28;19912;-78
2021/10/20 13:20:49;;;;;;;;;;;;;;;;;;5063899;28;20442;-79
2021/10/20 13:23:15;;;;;;;;;;;;;;;;;;5072264;28;19912;-80
2021/10/20 13:25:41;;;;;;;;;;;;;;;;;;5075894;28;19908;-77
2021/10/20 13:28:07;;;;;;;;;;;;;;;;;;5084219;28;19909;-71
2021/10/20 13:30:39;;;;;;;;;;;;;;;;;;5087550;28;19915;-72
2021/10/20 13:33:05;;;;;;;;;;;;;;;;;;5086722;28;20085;-72
2021/10/20 13:35:31;;;;;;;;;;;;;;;;;;5086577;28;19916;-71
2021/10/20 13:37:58;;;;;;;;;;;;;;;;;;5082837;28;19909;-71
2021/10/20 13:40:24;;;;;;;;;;;;;;;;;;5086348;28;19916;-70
2021/10/20 13:42:50;;;;;;;;;;;;;;;;;;5083233;28;19909;-71
2021/10/20 13:45:17;;;;;;;;;;;;;;;;;;5066449;28;19916;-71
2021/10/20 13:47:43;;;;;;;;;;;;;;;;;;5066531;28;19909;-71
2021/10/20 13:50:09;;;;;;;;;;;;;;;;;;5061476;28;19952;-74
2021/10/20 13:52:35;;;;;;;;;;;;;;;;;;5078875;28;19915;-75
2021/10/20 13:55:01;;;;;;;;;;;;;;;;;;5103454;28;19916;-73
2021/10/20 13:57:26;;;;;;;;;;;;;;;;;;5094182;28;19908;-79
2021/10/20 13:59:54;;;;;;;;;;;;;;;;;;5096513;28;19908;-73
2021/10/20 14:02:20;;;;;;;;;;;;;;;;;;5082431;28;19967;-73
2021/10/20 14:04:46;;;;;;;;;;;;;;;;;;5085325;28;19915;-73
2021/10/20 14:07:13;;;;;;;;;;;;;;;;;;5085804;28;19924;-71
2021/10/20 14:09:39;;;;;;;;;;;;;;;;;;5083915;28;20328;-72
2021/10/20 14:12:05;;;;;;;;;;;;;;;;;;5086275;28;19973;-72
2021/10/20 14:14:31;;;;;;;;;;;;;;;;;;5086660;28;19915;-71
2021/10/20 14:16:57;;;;;;;;;;;;;;;;;;5084212;28;19913;-74
2021/10/20 14:19:23;;;;;;;;;;;;;;;;;;5086228;28;19908;-72
2021/10/20 14:21:49;;;;;;;;;;;;;;;;;;5086425;28;20014;-74
2021/10/20 14:24:14;;;;;;;;;;;;;;;;;;5076999;28;19912;-75
2021/10/20 14:26:40;;;;;;;;;;;;;;;;;;5074607;28;19944;-78
2021/10/20 14:29:06;;;;;;;;;;;;;;;;;;5075310;28;19947;-78
2021/10/20 14:31:37;;;;;;;;;;;;;;;;;;5059551;28;20301;-75
2021/10/20 14:34:03;;;;;;;;;;;;;;;;;;5075962;28;19916;-79
2021/10/20 14:36:29;;;;;;;;;;;;;;;;;;5084219;28;19921;-77
2021/10/20 14:38:55;;;;;;;;;;;;;;;;;;5074420;28;20465;-76
2021/10/20 14:41:21;;;;;;;;;;;;;;;;;;5059031;28;19959;-75
2021/10/20 14:43:53;;;;;;;;;;;;;;;;;;5069284;28;20430;-71
2021/10/20 14:46:19;;;;;;;;;;;;;;;;;;5053432;28;19908;-77
2021/10/20 14:48:52;;;;;;;;;;;;;;;;;;5061018;28;20298;-76
2021/10/20 14:51:17;;;;;;;;;;;;;;;;;;5038241;28;20302;-76
2021/10/20 14:53:43;;;;;;;;;;;;;;;;;;5058494;28;19913;-76
2021/10/20 14:56:09;;;;;;;;;;;;;;;;;;5067217;28;20015;-75
2021/10/20 14:58:35;;;;;;;;;;;;;;;;;;5043187;28;19913;-76
2021/10/20 15:01:01;;;;;;;;;;;;;;;;;;5059582;28;19936;-75
2021/10/20 15:03:27;;;;;;;;;;;;;;;;;;5064171;28;19975;-74
2021/10/20 15:05:53;;;;;;;;;;;;;;;;;;5047825;28;19935;-75
2021/10/20 15:08:19;;;;;;;;;;;;;;;;;;5063263;28;19958;-75
2021/10/20 15:10:45;;;;;;;;;;;;;;;;;;5079878;28;19935;-73
2021/10/20 15:13:11;;;;;;;;;;;;;;;;;;5089469;28;20310;-72
2021/10/20 15:15:40;;;;;;;;;;;;;;;;;;5087997;28;19923;-72
2021/10/20 15:18:09;;;;;;;;;;;;;;;;;;5082157;28;20366;-72
2021/10/20 15:21:08;;;;;;;;;;;;;;;;;;5087213;28;19915;-73
2021/10/20 15:23:27;;;;;;;;;;;;;;;;;;5083700;28;19915;-77
2021/10/20 15:25:53;;;;;;;;;;;;;;;;;;5078531;28;19912;-72
2021/10/20 15:28:19;;;;;;;;;;;;;;;;;;5079803;28;19920;-75
2021/10/20 15:30:45;;;;;;;;;;;;;;;;;;5059670;28;19970;-76
2021/10/20 15:33:11;;;;;;;;;;;;;;;;;;5059096;28;20011;-72
2021/10/20 15:35:43;;;;;;;;;;;;;;;;;;5060088;28;19924;-73
2021/10/20 15:38:09;;;;;;;;;;;;;;;;;;5060586;28;19954;-76
2021/10/20 15:40:39;;;;;;;;;;;;;;;;;;5064780;28;19912;-74
2021/10/20 15:43:05;;;;;;;;;;;;;;;;;;5041372;28;19909;-72
2021/10/20 15:45:34;;;;;;;;;;;;;;;;;;5057386;28;20003;-74
2021/10/20 15:48:00;;;;;;;;;;;;;;;;;;5056276;28;20322;-75
2021/10/20 15:50:26;;;;;;;;;;;;;;;;;;5058597;28;19909;-74
2021/10/20 15:52:52;;;;;;;;;;;;;;;;;;5058709;28;20003;-75
2021/10/20 15:55:18;;;;;;;;;;;;;;;;;;5057430;28;19913;-76
2021/10/20 15:57:44;;;;;;;;;;;;;;;;;;5058307;28;19955;-76
2021/10/20 16:00:10;;;;;;;;;;;;;;;;;;5060706;28;19913;-73
2021/10/20 16:02:36;;;;;;;;;;;;;;;;;;5063130;28;19962;-75
2021/10/20 16:05:09;;;;;;;;;;;;;;;;;;5069301;28;19916;-75
2021/10/20 16:07:37;;;;;;;;;;;;;;;;;;5052549;28;19948;-72
2021/10/20 16:10:06;;;;;;;;;;;;;;;;;;5065364;28;19912;-73
2021/10/20 16:12:32;;;;;;;;;;;;;;;;;;5050167;28;19913;-71
2021/10/20 16:14:58;;;;;;;;;;;;;;;;;;5066807;28;19975;-74
2021/10/20 16:17:27;;;;;;;;;;;;;;;;;;5068138;28;19908;-74
2021/10/20 16:19:53;;;;;;;;;;;;;;;;;;5064480;28;19955;-74
2021/10/20 16:22:19;;;;;;;;;;;;;;;;;;5067394;28;19909;-76
2021/10/20 16:24:45;;;;;;;;;;;;;;;;;;5049784;28;20367;-74
2021/10/20 16:27:11;;;;;;;;;;;;;;;;;;5063178;28;19943;-74
2021/10/20 16:29:37;;;;;;;;;;;;;;;;;;5059968;28;19916;-76
2021/10/20 16:32:03;;;;;;;;;;;;;;;;;;5042269;28;19923;-74
2021/10/20 16:34:29;;;;;;;;;;;;;;;;;;5059317;28;19909;-72
2021/10/20 16:36:55;;;;;;;;;;;;;;;;;;5058712;28;20015;-74
2021/10/20 16:39:21;;;;;;;;;;;;;;;;;;5052869;28;19912;-75
2021/10/20 16:41:47;;;;;;;;;;;;;;;;;;5053412;28;19913;-73
2021/10/20 16:44:13;;;;;;;;;;;;;;;;;;5037889;28;19919;-75